Latest Weather Observations for Roma

IDQ60801

Issued at 8:02 pm EST Sunday 4 December 2016 (issued every 30 minutes, with the page automatically refreshed every 10 minutes)

About weather observations | Map of weather stations | Latest weather observations for QLD | Other Formats
Station Details ID: 043091 Name: ROMA AIRPORT Lat: -26.55 Lon: 148.77 Height: 307.38 m
Data from the previous 72 hours. | See also: Recent months at Roma
Date/Time
EST
Temp
°C
App
Temp
°C
Dew
Point
°C
Rel
Hum
%
Delta-T
°C
Wind Press
QNH
hPa
Press
MSL
hPa
Rain since
9am
mm
Dir  Spd
km/h
Gust
km/h
Spd
kts
Gust
kts
04/08:00pm 32.7 30.5 9.5 24 13.4 NW 11 11 6 6 1011.1 1009.2 0.0
04/07:30pm 34.4 31.7 8.9 21 14.7 NNW 13 20 7 11 1010.6 1008.7 0.0
04/07:00pm 35.7 31.4 9.3 20 15.4 N 22 28 12 15 1010.6 1008.7 0.0
04/06:30pm 36.1 31.5 9.6 20 15.5 NNW 24 35 13 19 1009.9 1008.1 0.0
04/06:00pm 37.7 31.8 7.6 16 17.2 NW 28 39 15 21 1009.2 1007.3 0.0
04/05:42pm 38.9 34.5 6.6 14 18.3 NW 19 39 10 21 1009.0 1007.1 0.0
04/05:30pm 40.7 38.0 5.7 12 19.7 NW 9 13 5 7 1008.6 1006.7 0.0
04/05:00pm 41.7 38.5 5.3 11 20.5 WNW 11 20 6 11 1008.4 1006.5 0.0
04/04:30pm 41.7 38.8 6.5 12 20.1 NE 11 19 6 10 1008.3 1006.4 0.0
04/04:00pm 42.4 38.6 5.8 11 20.8 W 15 24 8 13 1008.8 1006.9 0.0
04/03:30pm 42.1 38.5 6.8 12 20.3 W 15 24 8 13 1008.9 1007.0 0.0
04/03:00pm 42.1 38.6 5.6 11 20.7 N 13 22 7 12 1009.3 1007.4 0.0
04/02:30pm 42.0 38.0 6.7 12 20.3 W 17 24 9 13 1009.6 1007.7 0.0
04/02:00pm 41.8 38.2 6.6 12 20.2 NNW 15 24 8 13 1010.1 1008.3 0.0
04/01:30pm 41.6 38.2 7.6 13 19.8 WNW 15 28 8 15 1010.5 1008.6 0.0
04/01:00pm 41.0 38.1 8.2 14 19.2 NNW 13 26 7 14 1010.9 1009.0 0.0
04/12:30pm 40.9 38.0 8.1 14 19.1 WNW 13 22 7 12 1011.3 1009.4 0.0
04/12:00pm 40.5 35.8 7.8 14 19.0 NW 22 33 12 18 1011.9 1010.0 0.0
04/11:30am 39.4 35.6 8.9 16 17.9 N 19 28 10 15 1012.5 1010.6 0.0
04/11:00am 38.7 35.2 10.1 18 17.0 N 19 33 10 18 1013.0 1011.2 0.0
04/10:30am 38.2 35.6 12.0 21 16.0 NNW 17 28 9 15 1013.4 1011.6 0.0
04/10:00am 37.4 34.7 12.8 23 15.1 NNW 19 26 10 14 1013.9 1012.0 0.0
04/09:30am 35.5 32.8 13.6 26 13.5 N 20 33 11 18 1014.1 1012.2 0.0
04/09:00am 34.1 31.0 13.5 28 12.7 N 22 30 12 16 1014.4 1012.5 0.0
04/08:30am 32.2 27.5 14.3 33 11.1 N 32 39 17 21 1014.4 1012.5 0.0
04/08:00am 30.7 26.0 14.8 38 9.8 N 33 41 18 22 1014.5 1012.6 0.0
04/07:30am 29.7 25.1 14.7 40 9.2 N 32 44 17 24 1014.6 1012.7 0.0
04/07:00am 29.2 24.3 15.3 42 8.6 N 35 50 19 27 1014.6 1012.7 0.0
04/06:30am 28.0 23.8 15.6 46 7.7 N 32 48 17 26 1014.4 1012.5 0.0
04/06:00am 26.5 24.6 17.6 58 5.7 N 24 33 13 18 1014.2 1012.3 0.0
04/05:30am 25.3 23.9 18.0 64 4.7 NNE 22 32 12 17 1013.8 1011.9 0.0
04/05:00am 25.0 22.7 17.7 64 4.6 NNE 26 35 14 19 1013.2 1011.4 0.0
04/04:30am 25.4 23.6 17.8 62 4.8 NNE 24 35 13 19 1013.1 1011.3 0.0
04/04:00am 26.2 23.6 17.8 60 5.4 NNE 28 37 15 20 1012.7 1010.8 0.0
04/03:30am 26.9 24.1 17.4 56 6.0 NNE 28 37 15 20 1012.9 1011.1 0.0
04/03:00am 27.7 26.4 17.3 53 6.6 NNE 20 32 11 17 1012.8 1011.0 0.0
04/02:30am 28.1 26.8 15.7 46 7.7 NE 17 26 9 14 1012.7 1010.8 0.0
04/02:00am 28.9 25.6 12.8 37 9.6 ENE 22 30 12 16 1012.6 1010.7 0.0
04/01:30am 29.6 24.4 11.6 33 10.6 ENE 30 48 16 26 1012.5 1010.6 0.0
04/01:27am 29.6 25.1 12.5 35 10.2 ENE 28 48 15 26 1012.5 1010.6 0.0
04/01:00am 25.6 24.4 11.7 42 8.0 NE 9 17 5 9 1012.1 1010.2 0.0
04/12:30am 26.3 25.2 10.0 36 9.2 SSW 6 13 3 7 1012.3 1010.4 0.0
04/12:00am 28.4 28.6 10.6 33 10.2 CALM 0 0 0 0 1012.1 1010.2 0.0
 
Date/Time
EST
Temp
°C
App
Temp
°C
Dew
Point
°C
Rel
Hum
%
Delta-T
°C
Wind Press
QNH
hPa
Press
MSL
hPa
Rain since
9am
mm
Dir  Spd
km/h
Gust
km/h
Spd
kts
Gust
kts
03/11:30pm 29.3 27.4 10.4 31 10.9 N 11 13 6 7 1012.1 1010.2 0.0
03/11:00pm 28.9 27.0 11.9 35 10.0 N 13 17 7 9 1012.0 1010.1 0.0
03/10:30pm 28.3 27.0 12.6 38 9.3 NNE 11 15 6 8 1012.1 1010.2 0.0
03/10:00pm 28.1 26.0 11.2 35 9.8 NNE 13 17 7 9 1011.8 1009.9 0.0
03/09:30pm 28.8 26.6 9.5 30 10.9 NNE 11 13 6 7 1011.6 1009.7 0.0
03/09:00pm 31.1 28.3 9.9 27 12.2 N 15 20 8 11 1011.0 1009.1 0.0
03/08:30pm 32.3 28.9 10.4 26 12.8 N 19 24 10 13 1010.6 1008.7 0.0
03/08:00pm 32.0 29.2 11.2 28 12.3 N 17 24 9 13 1010.3 1008.4 0.0
03/07:30pm 32.7 28.0 10.7 26 12.9 N 26 35 14 19 1010.3 1008.4 0.0
03/07:00pm 33.0 28.0 9.7 24 13.5 N 26 35 14 19 1010.1 1008.3 0.0
03/06:30pm 33.7 27.8 10.3 24 13.7 NNE 32 44 17 24 1009.8 1007.9 0.0
03/06:21pm 34.5 28.6 9.0 21 14.7 NNE 30 44 16 24 1009.7 1007.8 0.0
03/06:00pm 37.6 34.9 5.6 14 17.8 NE 9 20 5 11 1009.3 1007.4 0.0
03/05:30pm 38.9 34.3 5.5 13 18.6 S 19 24 10 13 1008.9 1007.0 0.0
03/05:00pm 36.3 32.3 9.0 19 15.9 SSW 20 35 11 19 1008.9 1007.0 0.0
03/04:55pm 35.4 31.4 10.4 22 14.8 SSW 22 37 12 20 1008.9 1007.0 0.0
03/04:30pm 41.1 35.5 3.4 10 20.6 SW 22 46 12 25 1008.4 1006.5 0.0
03/04:00pm 42.4 38.0 2.9 9 21.6 W 15 22 8 12 1008.0 1006.1 0.0
03/03:30pm 43.5 37.9 3.7 9 22.1 W 22 32 12 17 1008.1 1006.2 0.0
03/03:00pm 41.9 37.5 2.6 9 21.3 W 15 22 8 12 1008.3 1006.4 0.0
03/02:30pm 43.3 38.1 3.6 9 22.0 WNW 20 30 11 16 1008.7 1006.8 0.0
03/02:00pm 41.6 36.4 3.8 10 20.8 W 20 37 11 20 1009.0 1007.1 0.0
03/01:30pm 42.1 37.2 4.2 10 21.0 WSW 19 37 10 20 1009.4 1007.5 0.0
03/01:21pm 43.4 37.8 5.2 10 21.6 WSW 24 37 13 20 1009.5 1007.6 0.0
03/01:00pm 42.4 37.9 4.4 10 21.2 WNW 17 37 9 20 1009.9 1008.1 0.0
03/12:30pm 42.2 37.7 4.3 10 21.1 W 17 35 9 19 1010.4 1008.5 0.0
03/12:00pm 41.6 36.7 5.2 11 20.5 WNW 20 32 11 17 1010.8 1008.9 0.0
03/11:30am 41.7 36.5 5.3 11 20.5 NW 22 35 12 19 1011.2 1009.3 0.0
03/11:00am 41.2 35.6 7.3 13 19.6 WNW 26 37 14 20 1011.6 1009.7 0.0
03/10:30am 40.6 35.3 6.8 13 19.3 WNW 24 39 13 21 1011.9 1010.0 0.0
03/10:00am 40.1 34.2 7.5 14 18.8 NW 28 39 15 21 1012.4 1010.5 0.0
03/09:30am 38.7 35.0 10.1 18 17.0 NNW 20 32 11 17 1012.6 1010.7 0.0
03/09:00am 37.0 32.2 10.3 20 15.8 NNW 26 39 14 21 1012.7 1010.8 0.0
03/08:30am 36.1 31.7 11.7 23 14.7 NNW 26 41 14 22 1012.6 1010.7 0.0
03/08:00am 34.3 29.8 12.6 27 13.2 N 28 37 15 20 1012.6 1010.7 0.0
03/07:30am 32.2 27.9 11.9 29 12.1 N 26 35 14 19 1012.3 1010.4 0.0
03/07:00am 30.1 26.0 11.6 32 10.9 N 24 30 13 16 1012.4 1010.5 0.0
03/06:30am 28.4 24.9 10.1 32 10.4 NNE 19 24 10 13 1012.1 1010.2 0.0
03/06:00am 27.1 23.2 9.5 33 9.9 NNE 20 26 11 14 1011.6 1009.7 0.0
03/05:30am 25.6 22.4 8.6 34 9.3 N 15 20 8 11 1011.2 1009.3 0.0
03/05:00am 24.9 21.6 8.0 34 9.1 N 15 19 8 10 1010.8 1008.9 0.0
03/04:30am 23.7 20.5 6.9 34 8.8 N 13 13 7 7 1010.6 1008.7 0.0
03/04:00am 24.8 21.8 6.1 30 9.8 N 11 13 6 7 1009.9 1008.1 0.0
03/03:30am 25.0 21.6 5.7 29 10.0 N 13 15 7 8 1009.5 1007.6 0.0
03/03:00am 25.8 22.8 5.9 28 10.4 N 11 13 6 7 1009.4 1007.5 0.0
03/02:30am 26.2 23.4 5.2 26 10.9 N 9 13 5 7 1009.5 1007.6 0.0
03/02:00am 25.7 22.7 4.2 25 10.9 N 9 11 5 6 1009.6 1007.7 0.0
03/01:30am 25.2 21.1 4.3 26 10.6 N 15 17 8 9 1009.7 1007.8 0.0
03/01:00am 24.8 21.9 4.5 27 10.3 N 9 15 5 8 1009.7 1007.8 0.0
03/12:30am 22.6 19.2 6.0 34 8.5 ESE 13 17 7 9 1010.0 1008.2 0.0
03/12:00am 23.3 20.0 4.8 30 9.3 N 11 19 6 10 1010.3 1008.4 0.0
 
Date/Time
EST
Temp
°C
App
Temp
°C
Dew
Point
°C
Rel
Hum
%
Delta-T
°C
Wind Press
QNH
hPa
Press
MSL
hPa
Rain since
9am
mm
Dir  Spd
km/h
Gust
km/h
Spd
kts
Gust
kts
02/11:30pm 24.2 22.8 5.5 30 9.6 NE 2 6 1 3 1010.5 1008.6 0.0
02/11:00pm 25.8 23.1 3.7 24 11.1 N 7 9 4 5 1010.7 1008.8 0.0
02/10:30pm 25.3 22.6 3.9 25 10.8 N 7 9 4 5 1010.8 1008.9 0.0
02/10:00pm 26.4 23.0 4.2 24 11.3 N 11 13 6 7 1010.7 1008.8 0.0
02/09:30pm 28.3 25.8 4.6 22 12.3 N 7 9 4 5 1010.6 1008.7 0.0
02/09:00pm 28.9 26.2 3.7 20 12.9 N 7 11 4 6 1010.8 1008.9 0.0
02/08:30pm 30.4 29.0 3.4 18 13.9 CALM 0 0 0 0 1010.5 1008.6 0.0
02/08:00pm 31.0 29.7 3.9 18 14.1 CALM 0 0 0 0 1010.3 1008.4 0.0
02/07:30pm 31.1 29.6 3.2 17 14.4 CALM 0 0 0 0 1009.9 1008.1 0.0
02/07:00pm 33.9 32.3 2.7 14 16.2 CALM 0 0 0 0 1009.6 1007.7 0.0
02/06:30pm 35.6 32.8 1.8 12 17.5 E 6 7 3 4 1009.4 1007.5 0.0
02/06:00pm 36.9 33.8 1.6 11 18.4 ESE 7 9 4 5 1009.1 1007.2 0.0
02/05:30pm 38.7 35.0 0.2 9 19.8 S 9 13 5 7 1008.9 1007.0 0.0
02/05:00pm 39.1 34.7 0.5 9 20.0 SSE 13 17 7 9 1008.6 1006.7 0.0
02/04:30pm 40.0 36.5 1.1 9 20.4 S 9 20 5 11 1008.5 1006.6 0.0
02/04:00pm 41.8 39.5 2.5 9 21.3 NNW 4 13 2 7 1008.5 1006.6 0.0
02/03:30pm 39.9 35.0 -0.5 8 20.7 SW 15 24 8 13 1008.6 1006.7 0.0
02/03:00pm 41.1 36.3 0.3 8 21.3 WSW 15 24 8 13 1008.7 1006.8 0.0
02/02:30pm 41.5 36.4 0.6 8 21.5 W 17 30 9 16 1009.0 1007.1 0.0
02/02:00pm 41.3 36.2 0.5 8 21.4 W 17 28 9 15 1009.2 1007.3 0.0
02/01:30pm 41.6 38.6 2.3 9 21.2 SSW 7 20 4 11 1009.5 1007.6 0.0
02/01:00pm 40.4 36.9 1.4 9 20.6 ESE 9 19 5 10 1009.9 1008.1 0.0
02/12:30pm 39.6 36.3 2.3 10 19.9 NW 9 20 5 11 1010.3 1008.4 0.0
02/12:00pm 40.0 36.7 2.6 10 20.1 N 9 20 5 11 1010.6 1008.7 0.0
02/11:30am 39.0 34.8 1.9 10 19.6 NNW 13 20 7 11 1010.9 1009.0 0.0
02/11:00am 38.4 34.4 2.8 11 19.0 NE 13 22 7 12 1011.2 1009.3 0.0
02/10:30am 38.1 34.7 3.8 12 18.5 ENE 11 20 6 11 1011.5 1009.6 0.0
02/10:00am 38.0 34.4 4.8 13 18.2 NNE 13 20 7 11 1011.7 1009.8 0.0
02/09:30am 36.0 32.1 5.3 15 16.8 NNE 15 22 8 12 1012.0 1010.1 0.0
02/09:00am 34.4 30.2 4.0 15 16.2 NNE 15 20 8 11 1012.1 1010.2 0.0
02/08:30am 32.8 28.2 5.4 18 14.8 NNE 19 26 10 14 1012.0 1010.1 0.0
02/08:00am 31.1 26.0 4.0 18 14.2 N 20 28 11 15 1011.9 1010.0 0.0
02/07:30am 29.6 25.5 2.0 17 13.8 NNE 13 17 7 9 1011.8 1009.9 0.0
02/07:00am 27.5 23.1 0.3 17 13.0 N 13 17 7 9 1011.7 1009.8 0.0
02/06:30am 25.4 21.1 0.8 20 11.7 N 13 15 7 8 1011.5 1009.6 0.0
02/06:00am 20.7 17.3 2.0 29 8.8 NNE 9 13 5 7 1011.2 1009.3 0.0
02/05:30am 17.3 14.5 2.9 38 6.7 NE 7 9 4 5 1011.0 1009.1 0.0
02/05:00am 16.4 13.0 2.1 38 6.5 N 9 13 5 7 1010.9 1009.0 0.0
02/04:30am 17.1 13.7 1.9 36 6.9 NNE 9 11 5 6 1010.7 1008.8 0.0
02/04:00am 17.3 13.2 2.1 36 7.0 NNE 13 13 7 7 1010.3 1008.4 0.0
02/03:30am 17.5 14.1 1.9 35 7.1 N 9 11 5 6 1009.8 1007.9 0.0
02/03:00am 18.3 15.3 1.8 33 7.6 NNE 7 9 4 5 1009.4 1007.5 0.0
02/02:30am 18.7 15.9 2.1 33 7.7 NE 6 7 3 4 1009.5 1007.6 0.0
02/02:00am 19.0 16.0 1.1 30 8.2 - 6 11 3 6 1009.3 1007.4 0.0
02/01:30am 18.6 16.1 1.6 32 7.8 NNE 4 7 2 4 1008.8 1006.9 0.0
02/01:00am 18.6 15.5 1.2 31 7.9 N 7 11 4 6 1008.9 1007.0 0.0
02/12:30am 19.7 16.8 1.2 29 8.5 NE 6 9 3 5 1009.0 1007.1 0.0
02/12:00am 20.4 16.9 1.3 28 8.8 NNE 9 11 5 6 1009.2 1007.3 0.0
 
Date/Time
EST
Temp
°C
App
Temp
°C
Dew
Point
°C
Rel
Hum
%
Delta-T
°C
Wind Press
QNH
hPa
Press
MSL
hPa
Rain since
9am
mm
Dir  Spd
km/h
Gust
km/h
Spd
kts
Gust
kts
01/11:30pm 20.7 17.6 1.1 27 9.0 N 7 9 4 5 1009.4 1007.5 0.0
01/11:00pm 21.3 17.8 1.0 26 9.4 N 9 9 5 5 1009.4 1007.5 0.0
01/10:30pm 22.0 18.8 0.5 24 9.9 NNE 7 9 4 5 1009.3 1007.4 0.0
01/10:00pm 22.3 19.0 0.2 23 10.2 N 7 9 4 5 1009.3 1007.4 0.0
01/09:30pm 23.7 20.3 -0.6 20 11.1 NNW 7 9 4 5 1009.1 1007.2 0.0
01/09:00pm 24.6 22.5 -0.5 19 11.6 CALM 0 0 0 0 1008.8 1006.9 0.0
01/08:30pm 23.8 21.3 -1.2 19 11.3 WSW 2 7 1 4 1008.4 1006.5 0.0

Other Formats:

Comma delimited format used in spreadsheet applications
http://www.bom.gov.au/fwo/IDQ60801/IDQ60801.94515.axf

JavaScript Object Notation format (JSON) in row-major order
http://www.bom.gov.au/fwo/IDQ60801/IDQ60801.94515.json